sensor_id;sensor_type;location;lat;lon;timestamp;P1;durP1;ratioP1;P2;durP2;ratioP2
78013;SDS011;67222;50.182;8.734;2023-03-04T06:32:39;20.60;;;8.60;;
78013;SDS011;67222;50.182;8.734;2023-03-04T06:35:08;22.88;;;10.48;;
78013;SDS011;67222;50.182;8.734;2023-03-04T06:37:34;25.65;;;10.38;;
78013;SDS011;67222;50.182;8.734;2023-03-04T06:39:59;21.87;;;11.03;;
78013;SDS011;67222;50.182;8.734;2023-03-04T06:42:25;19.85;;;10.45;;
78013;SDS011;67222;50.182;8.734;2023-03-04T06:44:50;23.10;;;9.50;;
78013;SDS011;67222;50.182;8.734;2023-03-04T06:47:15;23.47;;;10.20;;
78013;SDS011;67222;50.182;8.734;2023-03-04T06:49:42;19.23;;;9.35;;
78013;SDS011;67222;50.182;8.734;2023-03-04T06:52:08;22.38;;;9.68;;
78013;SDS011;67222;50.182;8.734;2023-03-04T06:54:36;18.08;;;8.48;;
78013;SDS011;67222;50.182;8.734;2023-03-04T06:57:01;16.47;;;8.10;;
78013;SDS011;67222;50.182;8.734;2023-03-04T06:59:26;17.80;;;7.90;;
78013;SDS011;67222;50.182;8.734;2023-03-04T07:01:52;20.40;;;8.27;;
78013;SDS011;67222;50.182;8.734;2023-03-04T07:04:18;18.50;;;9.55;;
78013;SDS011;67222;50.182;8.734;2023-03-04T07:06:44;19.17;;;9.50;;
78013;SDS011;67222;50.182;8.734;2023-03-04T07:09:09;25.23;;;9.97;;
78013;SDS011;67222;50.182;8.734;2023-03-04T07:11:34;19.92;;;8.77;;
78013;SDS011;67222;50.182;8.734;2023-03-04T07:14:00;18.92;;;8.27;;
78013;SDS011;67222;50.182;8.734;2023-03-04T07:16:25;23.08;;;8.82;;
78013;SDS011;67222;50.182;8.734;2023-03-04T07:18:50;17.27;;;8.43;;
78013;SDS011;67222;50.182;8.734;2023-03-04T07:21:16;17.15;;;8.13;;
78013;SDS011;67222;50.182;8.734;2023-03-04T07:23:42;19.67;;;9.60;;
78013;SDS011;67222;50.182;8.734;2023-03-04T07:26:08;18.48;;;9.73;;
78013;SDS011;67222;50.182;8.734;2023-03-04T07:28:34;16.77;;;9.07;;
78013;SDS011;67222;50.182;8.734;2023-03-04T07:31:07;22.38;;;8.88;;
78013;SDS011;67222;50.182;8.734;2023-03-04T07:33:49;16.98;;;8.55;;
78013;SDS011;67222;50.182;8.734;2023-03-04T07:36:15;19.88;;;7.90;;
78013;SDS011;67222;50.182;8.734;2023-03-04T07:38:44;18.60;;;8.90;;
78013;SDS011;67222;50.182;8.734;2023-03-04T07:41:10;18.60;;;8.60;;
78013;SDS011;67222;50.182;8.734;2023-03-04T07:43:36;17.58;;;7.55;;
78013;SDS011;67222;50.182;8.734;2023-03-04T07:46:01;19.10;;;8.07;;
78013;SDS011;67222;50.182;8.734;2023-03-04T07:48:26;20.10;;;8.07;;
78013;SDS011;67222;50.182;8.734;2023-03-04T07:51:11;16.48;;;7.30;;
78013;SDS011;67222;50.182;8.734;2023-03-04T07:53:41;15.82;;;7.47;;
78013;SDS011;67222;50.182;8.734;2023-03-04T07:56:10;13.63;;;6.65;;
78013;SDS011;67222;50.182;8.734;2023-03-04T07:58:37;15.93;;;6.30;;
78013;SDS011;67222;50.182;8.734;2023-03-04T08:01:07;16.47;;;7.23;;
78013;SDS011;67222;50.182;8.734;2023-03-04T08:03:40;12.13;;;6.10;;
78013;SDS011;67222;50.182;8.734;2023-03-04T08:06:07;14.55;;;6.38;;
78013;SDS011;67222;50.182;8.734;2023-03-04T08:08:34;18.20;;;7.25;;
78013;SDS011;67222;50.182;8.734;2023-03-04T08:11:03;21.15;;;8.35;;
78013;SDS011;67222;50.182;8.734;2023-03-04T08:13:33;22.08;;;8.55;;
78013;SDS011;67222;50.182;8.734;2023-03-04T08:15:59;17.15;;;7.20;;
78013;SDS011;67222;50.182;8.734;2023-03-04T08:18:25;17.52;;;7.18;;
78013;SDS011;67222;50.182;8.734;2023-03-04T08:20:50;16.50;;;7.65;;
78013;SDS011;67222;50.182;8.734;2023-03-04T08:23:16;19.52;;;8.25;;
78013;SDS011;67222;50.182;8.734;2023-03-04T08:25:42;20.15;;;8.40;;
78013;SDS011;67222;50.182;8.734;2023-03-04T08:28:07;22.10;;;8.20;;
78013;SDS011;67222;50.182;8.734;2023-03-04T08:30:34;17.88;;;8.05;;
78013;SDS011;67222;50.182;8.734;2023-03-04T08:33:00;19.35;;;7.88;;
78013;SDS011;67222;50.182;8.734;2023-03-04T08:35:26;17.08;;;7.60;;
78013;SDS011;67222;50.182;8.734;2023-03-04T08:37:52;17.07;;;7.60;;
78013;SDS011;67222;50.182;8.734;2023-03-04T08:40:17;16.10;;;7.30;;
78013;SDS011;67222;50.182;8.734;2023-03-04T08:42:42;20.20;;;7.50;;
78013;SDS011;67222;50.182;8.734;2023-03-04T08:45:08;15.13;;;6.43;;
78013;SDS011;67222;50.182;8.734;2023-03-04T08:47:34;18.95;;;7.47;;
78013;SDS011;67222;50.182;8.734;2023-03-04T08:50:00;16.00;;;7.32;;
78013;SDS011;67222;50.182;8.734;2023-03-04T08:52:25;15.15;;;6.82;;
78013;SDS011;67222;50.182;8.734;2023-03-04T08:54:53;17.33;;;7.60;;
78013;SDS011;67222;50.182;8.734;2023-03-04T08:57:18;16.43;;;6.90;;
78013;SDS011;67222;50.182;8.734;2023-03-04T08:59:43;13.23;;;5.90;;
78013;SDS011;67222;50.182;8.734;2023-03-04T09:02:09;15.97;;;6.80;;
78013;SDS011;67222;50.182;8.734;2023-03-04T09:04:34;12.68;;;5.90;;
78013;SDS011;67222;50.182;8.734;2023-03-04T09:07:00;21.30;;;7.47;;
78013;SDS011;67222;50.182;8.734;2023-03-04T09:09:25;15.70;;;6.25;;
78013;SDS011;67222;50.182;8.734;2023-03-04T09:11:51;14.38;;;6.00;;
78013;SDS011;67222;50.182;8.734;2023-03-04T09:14:16;15.97;;;6.90;;
78013;SDS011;67222;50.182;8.734;2023-03-04T09:16:41;14.50;;;5.37;;
78013;SDS011;67222;50.182;8.734;2023-03-04T09:19:07;12.00;;;5.70;;
78013;SDS011;67222;50.182;8.734;2023-03-04T09:21:32;15.07;;;6.20;;
78013;SDS011;67222;50.182;8.734;2023-03-04T09:23:57;14.00;;;6.37;;
78013;SDS011;67222;50.182;8.734;2023-03-04T09:26:27;13.20;;;5.77;;
78013;SDS011;67222;50.182;8.734;2023-03-04T09:28:54;17.80;;;5.53;;
78013;SDS011;67222;50.182;8.734;2023-03-04T09:31:21;14.43;;;5.50;;
78013;SDS011;67222;50.182;8.734;2023-03-04T09:33:47;13.43;;;5.20;;
78013;SDS011;67222;50.182;8.734;2023-03-04T09:36:13;18.75;;;6.78;;
78013;SDS011;67222;50.182;8.734;2023-03-04T09:38:39;14.20;;;5.13;;
78013;SDS011;67222;50.182;8.734;2023-03-04T09:41:09;13.55;;;4.88;;
78013;SDS011;67222;50.182;8.734;2023-03-04T09:43:39;11.38;;;4.85;;
78013;SDS011;67222;50.182;8.734;2023-03-04T09:46:08;13.13;;;4.68;;
78013;SDS011;67222;50.182;8.734;2023-03-04T09:48:39;12.02;;;5.30;;
78013;SDS011;67222;50.182;8.734;2023-03-04T09:51:17;13.15;;;5.45;;
78013;SDS011;67222;50.182;8.734;2023-03-04T09:56:33;14.45;;;4.75;;
78013;SDS011;67222;50.182;8.734;2023-03-04T09:59:18;13.65;;;5.22;;
78013;SDS011;67222;50.182;8.734;2023-03-04T10:01:51;13.77;;;4.85;;
78013;SDS011;67222;50.182;8.734;2023-03-04T10:04:36;10.77;;;4.30;;
78013;SDS011;67222;50.182;8.734;2023-03-04T10:07:20;11.73;;;4.82;;
78013;SDS011;67222;50.182;8.734;2023-03-04T10:12:19;16.83;;;5.32;;
78013;SDS011;67222;50.182;8.734;2023-03-04T10:14:49;14.27;;;4.75;;
78013;SDS011;67222;50.182;8.734;2023-03-04T10:17:35;12.30;;;5.00;;
78013;SDS011;67222;50.182;8.734;2023-03-04T10:20:04;13.50;;;5.03;;
78013;SDS011;67222;50.182;8.734;2023-03-04T10:22:45;13.30;;;5.32;;
78013;SDS011;67222;50.182;8.734;2023-03-04T10:28:42;13.27;;;4.05;;
78013;SDS011;67222;50.182;8.734;2023-03-04T10:33:34;15.13;;;4.73;;
78013;SDS011;67222;50.182;8.734;2023-03-04T10:36:01;11.65;;;3.88;;
78013;SDS011;67222;50.182;8.734;2023-03-04T10:38:35;14.02;;;3.58;;
78013;SDS011;67222;50.182;8.734;2023-03-04T10:41:14;12.95;;;5.32;;
78013;SDS011;67222;50.182;8.734;2023-03-04T10:43:42;13.52;;;4.15;;
78013;SDS011;67222;50.182;8.734;2023-03-04T10:46:11;7.18;;;3.33;;
78013;SDS011;67222;50.182;8.734;2023-03-04T10:48:37;11.93;;;3.97;;
78013;SDS011;67222;50.182;8.734;2023-03-04T10:51:10;11.25;;;3.70;;
78013;SDS011;67222;50.182;8.734;2023-03-04T10:53:42;12.25;;;3.92;;
78013;SDS011;67222;50.182;8.734;2023-03-04T10:59:03;10.10;;;3.67;;
78013;SDS011;67222;50.182;8.734;2023-03-04T11:01:49;12.45;;;4.25;;
78013;SDS011;67222;50.182;8.734;2023-03-04T11:04:17;13.60;;;3.60;;
78013;SDS011;67222;50.182;8.734;2023-03-04T11:06:43;9.75;;;3.45;;
78013;SDS011;67222;50.182;8.734;2023-03-04T11:09:20;9.48;;;3.75;;
78013;SDS011;67222;50.182;8.734;2023-03-04T11:11:49;10.65;;;4.05;;
78013;SDS011;67222;50.182;8.734;2023-03-04T11:17:02;9.73;;;3.83;;
78013;SDS011;67222;50.182;8.734;2023-03-04T11:22:48;6.70;;;3.20;;
78013;SDS011;67222;50.182;8.734;2023-03-04T11:25:26;7.75;;;3.25;;
78013;SDS011;67222;50.182;8.734;2023-03-04T11:28:37;8.57;;;3.33;;
78013;SDS011;67222;50.182;8.734;2023-03-04T11:31:03;9.15;;;3.00;;
78013;SDS011;67222;50.182;8.734;2023-03-04T11:36:25;7.88;;;3.08;;
78013;SDS011;67222;50.182;8.734;2023-03-04T11:38:57;8.52;;;2.80;;
78013;SDS011;67222;50.182;8.734;2023-03-04T11:41:34;7.97;;;3.30;;
78013;SDS011;67222;50.182;8.734;2023-03-04T11:44:04;9.43;;;3.80;;
78013;SDS011;67222;50.182;8.734;2023-03-04T11:57:30;8.82;;;3.67;;
78013;SDS011;67222;50.182;8.734;2023-03-04T12:05:17;5.38;;;2.58;;
78013;SDS011;67222;50.182;8.734;2023-03-04T12:10:44;10.10;;;2.63;;
78013;SDS011;67222;50.182;8.734;2023-03-04T12:24:11;5.65;;;2.17;;
78013;SDS011;67222;50.182;8.734;2023-03-04T12:51:39;5.35;;;2.20;;
78013;SDS011;67222;50.182;8.734;2023-03-04T12:54:20;4.20;;;1.85;;
78013;SDS011;67222;50.182;8.734;2023-03-04T12:57:01;5.50;;;2.10;;
78013;SDS011;67222;50.182;8.734;2023-03-04T12:59:36;3.67;;;1.60;;
78013;SDS011;67222;50.182;8.734;2023-03-04T13:07:52;6.57;;;1.70;;
78013;SDS011;67222;50.182;8.734;2023-03-04T13:10:20;3.78;;;1.55;;
78013;SDS011;67222;50.182;8.734;2023-03-04T13:12:51;4.30;;;1.63;;
78013;SDS011;67222;50.182;8.734;2023-03-04T13:17:48;5.10;;;1.70;;
78013;SDS011;67222;50.182;8.734;2023-03-04T13:22:59;3.22;;;1.30;;
78013;SDS011;67222;50.182;8.734;2023-03-04T13:28:17;4.70;;;1.60;;
78013;SDS011;67222;50.182;8.734;2023-03-04T13:31:03;4.22;;;1.60;;
78013;SDS011;67222;50.182;8.734;2023-03-04T13:36:02;7.30;;;2.23;;
78013;SDS011;67222;50.182;8.734;2023-03-04T13:39:14;4.95;;;1.50;;
78013;SDS011;67222;50.182;8.734;2023-03-04T13:42:02;4.70;;;1.73;;
78013;SDS011;67222;50.182;8.734;2023-03-04T13:44:54;6.80;;;1.65;;
78013;SDS011;67222;50.182;8.734;2023-03-04T13:47:33;5.15;;;;;
78013;SDS011;67222;50.182;8.734;2023-03-04T13:50:51;3.25;;;1.42;;
78013;SDS011;67222;50.182;8.734;2023-03-04T13:58:41;4.50;;;1.35;;
78013;SDS011;67222;50.182;8.734;2023-03-04T14:01:16;2.58;;;1.30;;
78013;SDS011;67222;50.182;8.734;2023-03-04T14:03:50;5.68;;;1.33;;
78013;SDS011;67222;50.182;8.734;2023-03-04T14:06:17;5.77;;;1.53;;
78013;SDS011;67222;50.182;8.734;2023-03-04T14:08:45;4.90;;;1.50;;
78013;SDS011;67222;50.182;8.734;2023-03-04T14:11:15;7.63;;;1.92;;
78013;SDS011;67222;50.182;8.734;2023-03-04T14:13:51;4.07;;;2.00;;
78013;SDS011;67222;50.182;8.734;2023-03-04T14:16:18;4.45;;;1.70;;
78013;SDS011;67222;50.182;8.734;2023-03-04T14:18:45;3.83;;;1.70;;
78013;SDS011;67222;50.182;8.734;2023-03-04T14:21:12;4.23;;;2.13;;
78013;SDS011;67222;50.182;8.734;2023-03-04T14:23:39;4.57;;;1.67;;
78013;SDS011;67222;50.182;8.734;2023-03-04T14:26:06;4.13;;;1.87;;
78013;SDS011;67222;50.182;8.734;2023-03-04T14:28:41;5.15;;;1.67;;
78013;SDS011;67222;50.182;8.734;2023-03-04T14:31:20;4.45;;;1.60;;
78013;SDS011;67222;50.182;8.734;2023-03-04T14:33:49;4.90;;;1.90;;
78013;SDS011;67222;50.182;8.734;2023-03-04T14:36:19;6.25;;;2.20;;
78013;SDS011;67222;50.182;8.734;2023-03-04T14:38:57;4.80;;;2.00;;
78013;SDS011;67222;50.182;8.734;2023-03-04T14:41:29;5.38;;;2.10;;
78013;SDS011;67222;50.182;8.734;2023-03-04T14:43:59;8.30;;;2.05;;
78013;SDS011;67222;50.182;8.734;2023-03-04T14:46:37;8.18;;;2.10;;
78013;SDS011;67222;50.182;8.734;2023-03-04T14:49:09;5.25;;;2.00;;
78013;SDS011;67222;50.182;8.734;2023-03-04T14:51:38;4.88;;;1.90;;
78013;SDS011;67222;50.182;8.734;2023-03-04T14:54:22;4.45;;;1.90;;
78013;SDS011;67222;50.182;8.734;2023-03-04T14:56:51;5.22;;;2.10;;
78013;SDS011;67222;50.182;8.734;2023-03-04T14:59:16;7.40;;;2.43;;
78013;SDS011;67222;50.182;8.734;2023-03-04T15:01:42;5.60;;;2.30;;
78013;SDS011;67222;50.182;8.734;2023-03-04T15:04:09;4.80;;;2.40;;
78013;SDS011;67222;50.182;8.734;2023-03-04T15:06:46;4.55;;;1.90;;
78013;SDS011;67222;50.182;8.734;2023-03-04T15:09:20;8.52;;;2.13;;
78013;SDS011;67222;50.182;8.734;2023-03-04T15:11:56;6.88;;;2.47;;
78013;SDS011;67222;50.182;8.734;2023-03-04T15:14:40;4.95;;;2.00;;
78013;SDS011;67222;50.182;8.734;2023-03-04T15:17:21;3.72;;;1.60;;
78013;SDS011;67222;50.182;8.734;2023-03-04T15:19:56;5.95;;;2.20;;
78013;SDS011;67222;50.182;8.734;2023-03-04T15:22:22;5.60;;;2.10;;
78013;SDS011;67222;50.182;8.734;2023-03-04T15:24:48;4.73;;;2.00;;
78013;SDS011;67222;50.182;8.734;2023-03-04T15:27:13;5.57;;;2.00;;
78013;SDS011;67222;50.182;8.734;2023-03-04T15:29:41;5.03;;;1.60;;
78013;SDS011;67222;50.182;8.734;2023-03-04T15:32:08;4.55;;;1.90;;
78013;SDS011;67222;50.182;8.734;2023-03-04T15:34:34;3.47;;;1.63;;
78013;SDS011;67222;50.182;8.734;2023-03-04T15:37:00;3.60;;;1.40;;
78013;SDS011;67222;50.182;8.734;2023-03-04T15:39:26;3.13;;;1.20;;
78013;SDS011;67222;50.182;8.734;2023-03-04T15:41:51;3.60;;;1.30;;
78013;SDS011;67222;50.182;8.734;2023-03-04T15:44:17;4.25;;;1.50;;
78013;SDS011;67222;50.182;8.734;2023-03-04T15:46:42;3.00;;;1.43;;
78013;SDS011;67222;50.182;8.734;2023-03-04T15:49:07;6.50;;;1.63;;
78013;SDS011;67222;50.182;8.734;2023-03-04T15:51:32;3.60;;;1.70;;
78013;SDS011;67222;50.182;8.734;2023-03-04T15:53:58;3.95;;;1.50;;
78013;SDS011;67222;50.182;8.734;2023-03-04T15:56:33;3.42;;;1.50;;
78013;SDS011;67222;50.182;8.734;2023-03-04T15:59:03;5.10;;;1.45;;
78013;SDS011;67222;50.182;8.734;2023-03-04T16:01:33;3.90;;;1.58;;
78013;SDS011;67222;50.182;8.734;2023-03-04T16:03:59;5.85;;;1.67;;
78013;SDS011;67222;50.182;8.734;2023-03-04T16:06:25;3.40;;;1.60;;
78013;SDS011;67222;50.182;8.734;2023-03-04T16:08:53;3.33;;;1.50;;
78013;SDS011;67222;50.182;8.734;2023-03-04T16:11:20;4.68;;;1.73;;
78013;SDS011;67222;50.182;8.734;2023-03-04T16:16:13;4.15;;;1.52;;
78013;SDS011;67222;50.182;8.734;2023-03-04T16:18:39;3.92;;;1.40;;
78013;SDS011;67222;50.182;8.734;2023-03-04T16:21:06;4.00;;;1.60;;
78013;SDS011;67222;50.182;8.734;2023-03-04T16:23:39;4.60;;;1.60;;
78013;SDS011;67222;50.182;8.734;2023-03-04T16:26:10;5.72;;;1.92;;
78013;SDS011;67222;50.182;8.734;2023-03-04T16:28:37;4.35;;;1.80;;
78013;SDS011;67222;50.182;8.734;2023-03-04T16:31:03;4.18;;;1.50;;
78013;SDS011;67222;50.182;8.734;2023-03-04T16:33:29;4.93;;;1.67;;
78013;SDS011;67222;50.182;8.734;2023-03-04T16:35:55;4.22;;;2.00;;
78013;SDS011;67222;50.182;8.734;2023-03-04T16:38:24;3.70;;;1.33;;
78013;SDS011;67222;50.182;8.734;2023-03-04T16:40:52;4.38;;;1.80;;
78013;SDS011;67222;50.182;8.734;2023-03-04T16:43:19;4.32;;;1.90;;
78013;SDS011;67222;50.182;8.734;2023-03-04T16:45:45;4.00;;;1.70;;
78013;SDS011;67222;50.182;8.734;2023-03-04T16:48:12;5.07;;;2.20;;
78013;SDS011;67222;50.182;8.734;2023-03-04T16:50:38;5.90;;;1.88;;
78013;SDS011;67222;50.182;8.734;2023-03-04T16:53:03;4.82;;;1.95;;
78013;SDS011;67222;50.182;8.734;2023-03-04T16:55:30;3.80;;;1.92;;
78013;SDS011;67222;50.182;8.734;2023-03-04T16:57:56;4.68;;;2.03;;
78013;SDS011;67222;50.182;8.734;2023-03-04T17:00:22;6.07;;;1.98;;
78013;SDS011;67222;50.182;8.734;2023-03-04T17:02:56;6.15;;;2.53;;
78013;SDS011;67222;50.182;8.734;2023-03-04T17:05:24;5.15;;;2.00;;
78013;SDS011;67222;50.182;8.734;2023-03-04T17:07:51;4.75;;;2.30;;
78013;SDS011;67222;50.182;8.734;2023-03-04T17:10:16;5.78;;;2.17;;
78013;SDS011;67222;50.182;8.734;2023-03-04T17:12:42;6.20;;;2.58;;
78013;SDS011;67222;50.182;8.734;2023-03-04T17:15:11;5.13;;;2.40;;
78013;SDS011;67222;50.182;8.734;2023-03-04T17:17:39;6.22;;;2.88;;
78013;SDS011;67222;50.182;8.734;2023-03-04T17:20:06;5.47;;;2.70;;
78013;SDS011;67222;50.182;8.734;2023-03-04T17:22:34;5.80;;;2.60;;
78013;SDS011;67222;50.182;8.734;2023-03-04T17:24:59;5.93;;;2.67;;
78013;SDS011;67222;50.182;8.734;2023-03-04T17:27:26;6.15;;;3.00;;
78013;SDS011;67222;50.182;8.734;2023-03-04T17:29:52;14.82;;;3.22;;
78013;SDS011;67222;50.182;8.734;2023-03-04T17:32:18;8.00;;;3.08;;
78013;SDS011;67222;50.182;8.734;2023-03-04T17:34:44;6.97;;;3.10;;
78013;SDS011;67222;50.182;8.734;2023-03-04T17:37:10;6.25;;;2.75;;
78013;SDS011;67222;50.182;8.734;2023-03-04T17:39:35;9.15;;;3.55;;
78013;SDS011;67222;50.182;8.734;2023-03-04T17:42:01;6.93;;;3.20;;
78013;SDS011;67222;50.182;8.734;2023-03-04T17:44:26;7.00;;;3.20;;
78013;SDS011;67222;50.182;8.734;2023-03-04T17:46:51;7.50;;;3.70;;
78013;SDS011;67222;50.182;8.734;2023-03-04T17:49:16;9.17;;;3.73;;
78013;SDS011;67222;50.182;8.734;2023-03-04T17:51:42;7.25;;;3.25;;
78013;SDS011;67222;50.182;8.734;2023-03-04T17:54:08;7.03;;;3.95;;
78013;SDS011;67222;50.182;8.734;2023-03-04T17:56:35;7.03;;;3.45;;
78013;SDS011;67222;50.182;8.734;2023-03-04T17:59:04;8.23;;;3.75;;
78013;SDS011;67222;50.182;8.734;2023-03-04T18:01:34;8.88;;;4.25;;
78013;SDS011;67222;50.182;8.734;2023-03-04T18:04:00;10.75;;;4.40;;
78013;SDS011;67222;50.182;8.734;2023-03-04T18:06:26;8.73;;;4.70;;
78013;SDS011;67222;50.182;8.734;2023-03-04T18:08:51;10.70;;;4.77;;
78013;SDS011;67222;50.182;8.734;2023-03-04T18:11:18;8.23;;;4.05;;
78013;SDS011;67222;50.182;8.734;2023-03-04T18:13:44;9.60;;;4.45;;
78013;SDS011;67222;50.182;8.734;2023-03-04T18:16:10;9.75;;;3.95;;
78013;SDS011;67222;50.182;8.734;2023-03-04T18:21:04;9.85;;;4.30;;
78013;SDS011;67222;50.182;8.734;2023-03-04T18:23:29;9.98;;;4.13;;
78013;SDS011;67222;50.182;8.734;2023-03-04T18:25:55;8.45;;;4.10;;
78013;SDS011;67222;50.182;8.734;2023-03-04T18:28:21;9.38;;;4.00;;
78013;SDS011;67222;50.182;8.734;2023-03-04T18:30:49;9.15;;;5.18;;
78013;SDS011;67222;50.182;8.734;2023-03-04T18:33:15;8.48;;;4.40;;
78013;SDS011;67222;50.182;8.734;2023-03-04T18:35:40;11.30;;;4.80;;
78013;SDS011;67222;50.182;8.734;2023-03-04T18:38:05;10.90;;;5.40;;
78013;SDS011;67222;50.182;8.734;2023-03-04T18:40:31;9.43;;;4.85;;
78013;SDS011;67222;50.182;8.734;2023-03-04T18:42:56;9.85;;;4.70;;
78013;SDS011;67222;50.182;8.734;2023-03-04T18:45:23;8.63;;;4.72;;
78013;SDS011;67222;50.182;8.734;2023-03-04T18:47:49;9.50;;;5.00;;
78013;SDS011;67222;50.182;8.734;2023-03-04T18:50:16;14.02;;;6.25;;
78013;SDS011;67222;50.182;8.734;2023-03-04T18:52:42;9.00;;;4.68;;
78013;SDS011;67222;50.182;8.734;2023-03-04T18:55:08;9.73;;;5.03;;
78013;SDS011;67222;50.182;8.734;2023-03-04T18:57:37;9.43;;;4.85;;
78013;SDS011;67222;50.182;8.734;2023-03-04T19:00:04;13.25;;;4.97;;
78013;SDS011;67222;50.182;8.734;2023-03-04T19:02:39;10.98;;;5.75;;
78013;SDS011;67222;50.182;8.734;2023-03-04T19:05:12;9.40;;;4.90;;
78013;SDS011;67222;50.182;8.734;2023-03-04T19:07:40;11.10;;;5.10;;
78013;SDS011;67222;50.182;8.734;2023-03-04T19:10:06;10.73;;;5.53;;
78013;SDS011;67222;50.182;8.734;2023-03-04T19:12:32;11.38;;;5.32;;
78013;SDS011;67222;50.182;8.734;2023-03-04T19:14:58;9.65;;;5.45;;
78013;SDS011;67222;50.182;8.734;2023-03-04T19:17:23;10.40;;;5.07;;
78013;SDS011;67222;50.182;8.734;2023-03-04T19:19:49;10.88;;;6.50;;
78013;SDS011;67222;50.182;8.734;2023-03-04T19:22:15;9.68;;;5.53;;
78013;SDS011;67222;50.182;8.734;2023-03-04T19:24:40;11.90;;;5.70;;
78013;SDS011;67222;50.182;8.734;2023-03-04T19:27:06;11.85;;;5.05;;
78013;SDS011;67222;50.182;8.734;2023-03-04T19:29:31;11.43;;;5.57;;
78013;SDS011;67222;50.182;8.734;2023-03-04T19:31:56;11.23;;;5.57;;
78013;SDS011;67222;50.182;8.734;2023-03-04T19:34:22;9.52;;;5.47;;
78013;SDS011;67222;50.182;8.734;2023-03-04T19:36:47;11.20;;;5.40;;
78013;SDS011;67222;50.182;8.734;2023-03-04T19:39:12;9.80;;;4.88;;
78013;SDS011;67222;50.182;8.734;2023-03-04T19:41:40;11.27;;;5.47;;
78013;SDS011;67222;50.182;8.734;2023-03-04T19:44:06;10.30;;;5.10;;
78013;SDS011;67222;50.182;8.734;2023-03-04T19:46:32;9.00;;;5.05;;
78013;SDS011;67222;50.182;8.734;2023-03-04T19:48:57;10.57;;;5.70;;
78013;SDS011;67222;50.182;8.734;2023-03-04T19:51:23;10.20;;;5.57;;
78013;SDS011;67222;50.182;8.734;2023-03-04T19:53:53;10.18;;;5.38;;
78013;SDS011;67222;50.182;8.734;2023-03-04T19:56:19;11.32;;;5.90;;
78013;SDS011;67222;50.182;8.734;2023-03-04T19:58:46;10.60;;;6.30;;
78013;SDS011;67222;50.182;8.734;2023-03-04T20:01:19;11.60;;;6.00;;
78013;SDS011;67222;50.182;8.734;2023-03-04T20:03:55;10.82;;;5.97;;
78013;SDS011;67222;50.182;8.734;2023-03-04T20:06:22;10.32;;;5.78;;
78013;SDS011;67222;50.182;8.734;2023-03-04T20:08:50;11.48;;;5.82;;
78013;SDS011;67222;50.182;8.734;2023-03-04T20:11:17;13.43;;;6.10;;
78013;SDS011;67222;50.182;8.734;2023-03-04T20:13:43;11.65;;;5.60;;
78013;SDS011;67222;50.182;8.734;2023-03-04T20:16:09;11.15;;;5.85;;
78013;SDS011;67222;50.182;8.734;2023-03-04T20:18:35;11.43;;;5.63;;
78013;SDS011;67222;50.182;8.734;2023-03-04T20:21:02;14.40;;;6.03;;
78013;SDS011;67222;50.182;8.734;2023-03-04T20:23:27;11.13;;;5.90;;
78013;SDS011;67222;50.182;8.734;2023-03-04T20:25:53;12.77;;;5.57;;
78013;SDS011;67222;50.182;8.734;2023-03-04T20:28:19;12.85;;;5.75;;
78013;SDS011;67222;50.182;8.734;2023-03-04T20:30:45;11.52;;;6.32;;
78013;SDS011;67222;50.182;8.734;2023-03-04T20:33:11;13.43;;;6.40;;
78013;SDS011;67222;50.182;8.734;2023-03-04T20:35:36;11.57;;;6.70;;
78013;SDS011;67222;50.182;8.734;2023-03-04T20:38:04;13.40;;;6.57;;
78013;SDS011;67222;50.182;8.734;2023-03-04T20:40:30;12.75;;;5.95;;
78013;SDS011;67222;50.182;8.734;2023-03-04T20:42:55;14.10;;;6.57;;
78013;SDS011;67222;50.182;8.734;2023-03-04T20:45:20;11.80;;;6.53;;
78013;SDS011;67222;50.182;8.734;2023-03-04T20:47:48;12.23;;;6.38;;
78013;SDS011;67222;50.182;8.734;2023-03-04T20:50:14;12.20;;;6.07;;
78013;SDS011;67222;50.182;8.734;2023-03-04T20:52:40;10.10;;;5.65;;
78013;SDS011;67222;50.182;8.734;2023-03-04T20:55:05;10.07;;;6.00;;
78013;SDS011;67222;50.182;8.734;2023-03-04T20:57:31;10.20;;;5.72;;
78013;SDS011;67222;50.182;8.734;2023-03-04T20:59:56;12.97;;;5.57;;
78013;SDS011;67222;50.182;8.734;2023-03-04T21:02:21;10.20;;;5.63;;
78013;SDS011;67222;50.182;8.734;2023-03-04T21:04:47;11.38;;;5.55;;
78013;SDS011;67222;50.182;8.734;2023-03-04T21:07:12;11.10;;;5.35;;
78013;SDS011;67222;50.182;8.734;2023-03-04T21:09:38;9.43;;;5.68;;
78013;SDS011;67222;50.182;8.734;2023-03-04T21:12:03;10.13;;;6.10;;
78013;SDS011;67222;50.182;8.734;2023-03-04T21:14:30;11.20;;;5.88;;
78013;SDS011;67222;50.182;8.734;2023-03-04T21:16:57;10.32;;;5.05;;
78013;SDS011;67222;50.182;8.734;2023-03-04T21:19:26;9.20;;;5.88;;
78013;SDS011;67222;50.182;8.734;2023-03-04T21:21:57;9.77;;;5.55;;
78013;SDS011;67222;50.182;8.734;2023-03-04T21:24:25;12.85;;;5.95;;
78013;SDS011;67222;50.182;8.734;2023-03-04T21:26:52;11.25;;;6.10;;
78013;SDS011;67222;50.182;8.734;2023-03-04T21:29:18;10.50;;;6.15;;
78013;SDS011;67222;50.182;8.734;2023-03-04T21:31:50;11.43;;;5.80;;
78013;SDS011;67222;50.182;8.734;2023-03-04T21:34:20;11.23;;;5.65;;
78013;SDS011;67222;50.182;8.734;2023-03-04T21:36:48;12.23;;;6.28;;
78013;SDS011;67222;50.182;8.734;2023-03-04T21:39:14;11.73;;;6.13;;
78013;SDS011;67222;50.182;8.734;2023-03-04T21:41:40;10.75;;;6.70;;
78013;SDS011;67222;50.182;8.734;2023-03-04T21:44:06;12.20;;;6.50;;
78013;SDS011;67222;50.182;8.734;2023-03-04T21:46:31;12.02;;;6.60;;
78013;SDS011;67222;50.182;8.734;2023-03-04T21:48:57;11.75;;;5.93;;
78013;SDS011;67222;50.182;8.734;2023-03-04T21:51:22;10.68;;;6.03;;
78013;SDS011;67222;50.182;8.734;2023-03-04T21:53:47;10.17;;;5.67;;
78013;SDS011;67222;50.182;8.734;2023-03-04T21:56:13;13.38;;;6.13;;
78013;SDS011;67222;50.182;8.734;2023-03-04T21:58:38;12.23;;;6.95;;
78013;SDS011;67222;50.182;8.734;2023-03-04T22:01:16;12.75;;;6.43;;
78013;SDS011;67222;50.182;8.734;2023-03-04T22:03:43;10.77;;;5.97;;
78013;SDS011;67222;50.182;8.734;2023-03-04T22:06:09;9.18;;;5.50;;
78013;SDS011;67222;50.182;8.734;2023-03-04T22:08:36;12.55;;;5.88;;
78013;SDS011;67222;50.182;8.734;2023-03-04T22:11:03;10.48;;;6.18;;
78013;SDS011;67222;50.182;8.734;2023-03-04T22:13:29;11.63;;;6.05;;
78013;SDS011;67222;50.182;8.734;2023-03-04T22:15:55;9.88;;;6.20;;
78013;SDS011;67222;50.182;8.734;2023-03-04T22:18:22;9.93;;;5.07;;
78013;SDS011;67222;50.182;8.734;2023-03-04T22:20:48;10.15;;;5.60;;
78013;SDS011;67222;50.182;8.734;2023-03-04T22:23:13;12.30;;;6.33;;
78013;SDS011;67222;50.182;8.734;2023-03-04T22:25:39;10.07;;;5.67;;
78013;SDS011;67222;50.182;8.734;2023-03-04T22:28:06;10.57;;;5.95;;
78013;SDS011;67222;50.182;8.734;2023-03-04T22:30:32;12.45;;;6.05;;
78013;SDS011;67222;50.182;8.734;2023-03-04T22:32:58;10.38;;;5.32;;
78013;SDS011;67222;50.182;8.734;2023-03-04T22:35:24;8.90;;;5.03;;
78013;SDS011;67222;50.182;8.734;2023-03-04T22:37:49;9.53;;;5.50;;
78013;SDS011;67222;50.182;8.734;2023-03-04T22:40:14;9.82;;;5.35;;
78013;SDS011;67222;50.182;8.734;2023-03-04T22:42:43;10.13;;;5.50;;
78013;SDS011;67222;50.182;8.734;2023-03-04T22:45:10;11.93;;;5.45;;
78013;SDS011;67222;50.182;8.734;2023-03-04T22:47:37;10.50;;;5.65;;
78013;SDS011;67222;50.182;8.734;2023-03-04T22:50:04;9.00;;;4.88;;
78013;SDS011;67222;50.182;8.734;2023-03-04T22:52:30;9.20;;;5.30;;
78013;SDS011;67222;50.182;8.734;2023-03-04T22:54:55;11.20;;;5.60;;
78013;SDS011;67222;50.182;8.734;2023-03-04T22:57:21;12.77;;;5.50;;
78013;SDS011;67222;50.182;8.734;2023-03-04T22:59:46;10.47;;;5.13;;
